Aviation Digital Data Service (ADDS)

Output produced by METARs form (0940 UTC 24 March 2019)
found at http://www.aviationweather.gov/metar/data/
 
Forecast for: FBSK (SIR SERETSE KHAM, BW)
Text: TAF FBSK 240900Z 2412/2518 05010KT 9999 SCT030
Forecast period: 1200 to 1300 UTC 24 March 2019
Forecast type: FROM: standard forecast or significant change
Winds: from the NE (50 degrees) at 12 MPH (10 knots; 5.1 m/s)
Visibility: 6 or more miles 10+ km)
Ceiling: at least 12,000 feet AGL
Clouds: scattered clouds at 3000 feet AGL
Weather: no significant weather forecast for this period
Text: BECMG 2413/2415 FEW040 CB
Forecast period: 1300 to 1700 UTC 24 March 2019
Forecast type: BECOMING: Conditions expected to become as follows by 1500 UTC 24 March 2019
Winds: from the NE (50 degrees) at 12 MPH (10 knots; 5.1 m/s)
Visibility: 6 or more miles 10+ km)
Ceiling: at least 12,000 feet AGL
Clouds: few clouds at 4000 feet AGL
Weather: no significant weather forecast for this period
Text: BECMG 2417/2419 CAVOK
Forecast period: 1700 UTC 24 March 2019 to 1800 UTC 25 March 2019
Forecast type: BECOMING: Conditions expected to become as follows by 1900 UTC 24 March 2019
Winds: from the NE (50 degrees) at 12 MPH (10 knots; 5.1 m/s)
Visibility: 6 or more miles 10+ km)
Ceiling: unknown
Clouds: missing
Weather: NSW  (no significant weather)